sensor_id;sensor_type;location;lat;lon;timestamp;P1;durP1;ratioP1;P2;durP2;ratioP2
16189;SDS011;41754;51.498;7.540;2023-04-03T00:00:46;9.77;;;8.60;;
16189;SDS011;41754;51.498;7.540;2023-04-03T00:03:17;9.17;;;8.27;;
16189;SDS011;41754;51.498;7.540;2023-04-03T00:05:45;11.07;;;8.60;;
16189;SDS011;41754;51.498;7.540;2023-04-03T00:08:13;9.57;;;8.17;;
16189;SDS011;41754;51.498;7.540;2023-04-03T00:10:41;11.33;;;8.43;;
16189;SDS011;41754;51.498;7.540;2023-04-03T00:13:09;9.07;;;8.13;;
16189;SDS011;41754;51.498;7.540;2023-04-03T00:15:38;9.07;;;8.17;;
16189;SDS011;41754;51.498;7.540;2023-04-03T00:18:06;10.63;;;8.90;;
16189;SDS011;41754;51.498;7.540;2023-04-03T00:20:36;10.17;;;8.47;;
16189;SDS011;41754;51.498;7.540;2023-04-03T00:23:04;9.30;;;8.40;;
16189;SDS011;41754;51.498;7.540;2023-04-03T00:25:32;10.33;;;8.73;;
16189;SDS011;41754;51.498;7.540;2023-04-03T00:28:00;10.30;;;9.07;;
16189;SDS011;41754;51.498;7.540;2023-04-03T00:30:28;10.90;;;9.43;;
16189;SDS011;41754;51.498;7.540;2023-04-03T00:32:56;11.20;;;8.80;;
16189;SDS011;41754;51.498;7.540;2023-04-03T00:35:24;9.57;;;8.57;;
16189;SDS011;41754;51.498;7.540;2023-04-03T00:37:54;10.53;;;8.27;;
16189;SDS011;41754;51.498;7.540;2023-04-03T00:40:23;8.60;;;7.80;;
16189;SDS011;41754;51.498;7.540;2023-04-03T00:42:55;9.40;;;8.03;;
16189;SDS011;41754;51.498;7.540;2023-04-03T00:45:26;9.77;;;7.90;;
16189;SDS011;41754;51.498;7.540;2023-04-03T00:47:57;9.47;;;8.17;;
16189;SDS011;41754;51.498;7.540;2023-04-03T00:50:28;9.00;;;8.03;;
16189;SDS011;41754;51.498;7.540;2023-04-03T00:52:58;9.73;;;8.00;;
16189;SDS011;41754;51.498;7.540;2023-04-03T00:55:27;8.77;;;7.90;;
16189;SDS011;41754;51.498;7.540;2023-04-03T00:57:56;9.93;;;7.37;;
16189;SDS011;41754;51.498;7.540;2023-04-03T01:00:24;7.63;;;6.63;;
16189;SDS011;41754;51.498;7.540;2023-04-03T01:02:53;8.23;;;6.30;;
16189;SDS011;41754;51.498;7.540;2023-04-03T01:05:21;7.43;;;5.30;;
16189;SDS011;41754;51.498;7.540;2023-04-03T01:07:49;6.80;;;5.43;;
16189;SDS011;41754;51.498;7.540;2023-04-03T01:10:21;7.37;;;5.40;;
16189;SDS011;41754;51.498;7.540;2023-04-03T01:12:49;8.67;;;4.40;;
16189;SDS011;41754;51.498;7.540;2023-04-03T01:15:18;6.13;;;4.57;;
16189;SDS011;41754;51.498;7.540;2023-04-03T01:17:48;8.23;;;4.77;;
16189;SDS011;41754;51.498;7.540;2023-04-03T01:23:34;6.33;;;4.23;;
16189;SDS011;41754;51.498;7.540;2023-04-03T01:26:13;6.97;;;4.23;;
16189;SDS011;41754;51.498;7.540;2023-04-03T01:28:42;5.60;;;3.53;;
16189;SDS011;41754;51.498;7.540;2023-04-03T01:31:13;6.43;;;3.80;;
16189;SDS011;41754;51.498;7.540;2023-04-03T01:33:48;6.43;;;3.50;;
16189;SDS011;41754;51.498;7.540;2023-04-03T01:36:18;6.00;;;3.57;;
16189;SDS011;41754;51.498;7.540;2023-04-03T01:38:48;4.57;;;2.90;;
16189;SDS011;41754;51.498;7.540;2023-04-03T01:41:16;5.67;;;3.00;;
16189;SDS011;41754;51.498;7.540;2023-04-03T01:43:45;5.20;;;2.80;;
16189;SDS011;41754;51.498;7.540;2023-04-03T01:46:14;4.33;;;2.83;;
16189;SDS011;41754;51.498;7.540;2023-04-03T01:48:42;5.93;;;2.97;;
16189;SDS011;41754;51.498;7.540;2023-04-03T01:51:11;6.97;;;2.90;;
16189;SDS011;41754;51.498;7.540;2023-04-03T01:53:39;3.90;;;2.30;;
16189;SDS011;41754;51.498;7.540;2023-04-03T01:56:07;5.47;;;2.20;;
16189;SDS011;41754;51.498;7.540;2023-04-03T01:58:35;3.67;;;2.30;;
16189;SDS011;41754;51.498;7.540;2023-04-03T02:01:03;5.23;;;2.17;;
16189;SDS011;41754;51.498;7.540;2023-04-03T02:03:32;4.37;;;2.10;;
16189;SDS011;41754;51.498;7.540;2023-04-03T02:06:00;4.47;;;2.10;;
16189;SDS011;41754;51.498;7.540;2023-04-03T02:08:29;4.40;;;2.50;;
16189;SDS011;41754;51.498;7.540;2023-04-03T02:10:57;3.73;;;2.20;;
16189;SDS011;41754;51.498;7.540;2023-04-03T02:13:25;7.00;;;2.47;;
16189;SDS011;41754;51.498;7.540;2023-04-03T02:15:53;3.90;;;2.20;;
16189;SDS011;41754;51.498;7.540;2023-04-03T02:18:21;4.83;;;2.50;;
16189;SDS011;41754;51.498;7.540;2023-04-03T02:20:49;4.00;;;2.23;;
16189;SDS011;41754;51.498;7.540;2023-04-03T02:23:17;4.80;;;2.27;;
16189;SDS011;41754;51.498;7.540;2023-04-03T02:25:46;4.47;;;2.23;;
16189;SDS011;41754;51.498;7.540;2023-04-03T02:28:15;5.27;;;2.10;;
16189;SDS011;41754;51.498;7.540;2023-04-03T02:30:43;3.90;;;1.90;;
16189;SDS011;41754;51.498;7.540;2023-04-03T02:33:11;4.13;;;2.13;;
16189;SDS011;41754;51.498;7.540;2023-04-03T02:35:39;3.73;;;2.17;;
16189;SDS011;41754;51.498;7.540;2023-04-03T02:38:07;3.67;;;2.07;;
16189;SDS011;41754;51.498;7.540;2023-04-03T02:40:35;3.30;;;2.10;;
16189;SDS011;41754;51.498;7.540;2023-04-03T02:43:04;6.57;;;2.77;;
16189;SDS011;41754;51.498;7.540;2023-04-03T02:45:33;3.83;;;1.90;;
16189;SDS011;41754;51.498;7.540;2023-04-03T02:48:01;3.60;;;1.87;;
16189;SDS011;41754;51.498;7.540;2023-04-03T02:50:29;4.63;;;2.20;;
16189;SDS011;41754;51.498;7.540;2023-04-03T02:52:57;7.17;;;1.90;;
16189;SDS011;41754;51.498;7.540;2023-04-03T02:55:25;6.70;;;2.03;;
16189;SDS011;41754;51.498;7.540;2023-04-03T02:57:54;5.23;;;1.90;;
16189;SDS011;41754;51.498;7.540;2023-04-03T03:00:24;6.10;;;2.10;;
16189;SDS011;41754;51.498;7.540;2023-04-03T03:02:52;4.30;;;2.10;;
16189;SDS011;41754;51.498;7.540;2023-04-03T03:05:20;6.80;;;1.97;;
16189;SDS011;41754;51.498;7.540;2023-04-03T03:07:49;4.80;;;1.83;;
16189;SDS011;41754;51.498;7.540;2023-04-03T03:10:17;3.77;;;2.20;;
16189;SDS011;41754;51.498;7.540;2023-04-03T03:12:45;7.47;;;2.37;;
16189;SDS011;41754;51.498;7.540;2023-04-03T03:15:13;5.20;;;2.40;;
16189;SDS011;41754;51.498;7.540;2023-04-03T03:17:43;3.23;;;1.90;;
16189;SDS011;41754;51.498;7.540;2023-04-03T03:20:12;3.33;;;1.90;;
16189;SDS011;41754;51.498;7.540;2023-04-03T03:22:41;5.87;;;2.33;;
16189;SDS011;41754;51.498;7.540;2023-04-03T03:25:09;2.87;;;2.13;;
16189;SDS011;41754;51.498;7.540;2023-04-03T03:27:38;6.00;;;2.33;;
16189;SDS011;41754;51.498;7.540;2023-04-03T03:30:06;4.37;;;2.20;;
16189;SDS011;41754;51.498;7.540;2023-04-03T03:32:35;6.43;;;2.43;;
16189;SDS011;41754;51.498;7.540;2023-04-03T03:35:04;3.57;;;2.07;;
16189;SDS011;41754;51.498;7.540;2023-04-03T03:37:32;5.83;;;2.43;;
16189;SDS011;41754;51.498;7.540;2023-04-03T03:40:00;5.27;;;1.80;;
16189;SDS011;41754;51.498;7.540;2023-04-03T03:42:30;5.97;;;2.20;;
16189;SDS011;41754;51.498;7.540;2023-04-03T03:44:58;4.83;;;2.00;;
16189;SDS011;41754;51.498;7.540;2023-04-03T03:47:26;2.63;;;1.77;;
16189;SDS011;41754;51.498;7.540;2023-04-03T03:49:55;5.90;;;2.33;;
16189;SDS011;41754;51.498;7.540;2023-04-03T03:52:24;5.87;;;2.30;;
16189;SDS011;41754;51.498;7.540;2023-04-03T03:54:53;2.70;;;1.60;;
16189;SDS011;41754;51.498;7.540;2023-04-03T03:57:21;6.27;;;2.23;;
16189;SDS011;41754;51.498;7.540;2023-04-03T03:59:49;4.83;;;2.30;;
16189;SDS011;41754;51.498;7.540;2023-04-03T04:02:19;5.77;;;2.10;;
16189;SDS011;41754;51.498;7.540;2023-04-03T04:04:47;3.23;;;2.10;;
16189;SDS011;41754;51.498;7.540;2023-04-03T04:07:16;4.33;;;2.30;;
16189;SDS011;41754;51.498;7.540;2023-04-03T04:09:45;6.10;;;1.90;;
16189;SDS011;41754;51.498;7.540;2023-04-03T04:12:13;4.27;;;2.00;;
16189;SDS011;41754;51.498;7.540;2023-04-03T04:14:42;5.80;;;2.03;;
16189;SDS011;41754;51.498;7.540;2023-04-03T04:17:14;6.00;;;2.40;;
16189;SDS011;41754;51.498;7.540;2023-04-03T04:19:42;3.73;;;2.13;;
16189;SDS011;41754;51.498;7.540;2023-04-03T04:22:10;5.37;;;2.80;;
16189;SDS011;41754;51.498;7.540;2023-04-03T04:24:37;5.20;;;2.20;;
16189;SDS011;41754;51.498;7.540;2023-04-03T04:27:09;4.80;;;2.60;;
16189;SDS011;41754;51.498;7.540;2023-04-03T04:29:37;4.23;;;2.67;;
16189;SDS011;41754;51.498;7.540;2023-04-03T04:32:06;6.53;;;2.17;;
16189;SDS011;41754;51.498;7.540;2023-04-03T04:34:35;6.07;;;2.40;;
16189;SDS011;41754;51.498;7.540;2023-04-03T04:37:03;6.23;;;2.57;;
16189;SDS011;41754;51.498;7.540;2023-04-03T04:39:31;6.20;;;2.70;;
16189;SDS011;41754;51.498;7.540;2023-04-03T04:41:59;4.97;;;2.40;;
16189;SDS011;41754;51.498;7.540;2023-04-03T04:44:31;2.80;;;2.20;;
16189;SDS011;41754;51.498;7.540;2023-04-03T04:46:59;6.73;;;2.80;;
16189;SDS011;41754;51.498;7.540;2023-04-03T04:49:27;6.43;;;2.63;;
16189;SDS011;41754;51.498;7.540;2023-04-03T04:51:55;5.37;;;2.80;;
16189;SDS011;41754;51.498;7.540;2023-04-03T04:54:27;5.43;;;2.43;;
16189;SDS011;41754;51.498;7.540;2023-04-03T04:56:56;4.57;;;2.33;;
16189;SDS011;41754;51.498;7.540;2023-04-03T04:59:25;3.83;;;2.43;;
16189;SDS011;41754;51.498;7.540;2023-04-03T05:01:57;6.97;;;2.70;;
16189;SDS011;41754;51.498;7.540;2023-04-03T05:04:26;3.63;;;2.33;;
16189;SDS011;41754;51.498;7.540;2023-04-03T05:07:00;6.33;;;2.50;;
16189;SDS011;41754;51.498;7.540;2023-04-03T05:09:30;10.67;;;2.77;;
16189;SDS011;41754;51.498;7.540;2023-04-03T05:11:58;5.83;;;2.93;;
16189;SDS011;41754;51.498;7.540;2023-04-03T05:14:29;6.70;;;2.70;;
16189;SDS011;41754;51.498;7.540;2023-04-03T05:17:03;8.10;;;2.90;;
16189;SDS011;41754;51.498;7.540;2023-04-03T05:19:34;3.50;;;2.27;;
16189;SDS011;41754;51.498;7.540;2023-04-03T05:22:03;7.80;;;2.80;;
16189;SDS011;41754;51.498;7.540;2023-04-03T05:24:31;5.57;;;2.80;;
16189;SDS011;41754;51.498;7.540;2023-04-03T05:26:59;6.57;;;2.57;;
16189;SDS011;41754;51.498;7.540;2023-04-03T05:29:28;5.40;;;2.10;;
16189;SDS011;41754;51.498;7.540;2023-04-03T05:31:58;5.50;;;2.60;;
16189;SDS011;41754;51.498;7.540;2023-04-03T05:34:27;8.70;;;2.77;;
16189;SDS011;41754;51.498;7.540;2023-04-03T05:36:56;5.80;;;2.30;;
16189;SDS011;41754;51.498;7.540;2023-04-03T05:39:26;7.20;;;2.73;;
16189;SDS011;41754;51.498;7.540;2023-04-03T05:41:54;4.70;;;2.57;;
16189;SDS011;41754;51.498;7.540;2023-04-03T05:44:22;5.93;;;2.63;;
16189;SDS011;41754;51.498;7.540;2023-04-03T05:46:52;5.27;;;2.40;;
16189;SDS011;41754;51.498;7.540;2023-04-03T05:49:20;7.23;;;2.80;;
16189;SDS011;41754;51.498;7.540;2023-04-03T05:51:49;6.93;;;2.27;;
16189;SDS011;41754;51.498;7.540;2023-04-03T05:54:23;4.07;;;2.57;;
16189;SDS011;41754;51.498;7.540;2023-04-03T05:56:57;5.33;;;2.50;;
16189;SDS011;41754;51.498;7.540;2023-04-03T05:59:26;5.70;;;2.47;;
16189;SDS011;41754;51.498;7.540;2023-04-03T06:01:56;5.53;;;2.33;;
16189;SDS011;41754;51.498;7.540;2023-04-03T06:04:24;5.83;;;2.60;;
16189;SDS011;41754;51.498;7.540;2023-04-03T06:06:54;5.53;;;2.30;;
16189;SDS011;41754;51.498;7.540;2023-04-03T06:09:26;6.53;;;2.63;;
16189;SDS011;41754;51.498;7.540;2023-04-03T06:11:55;5.27;;;2.57;;
16189;SDS011;41754;51.498;7.540;2023-04-03T06:14:25;5.97;;;2.67;;
16189;SDS011;41754;51.498;7.540;2023-04-03T06:16:54;4.80;;;2.77;;
16189;SDS011;41754;51.498;7.540;2023-04-03T06:19:21;4.40;;;2.20;;
16189;SDS011;41754;51.498;7.540;2023-04-03T06:21:55;6.60;;;2.07;;
16189;SDS011;41754;51.498;7.540;2023-04-03T06:24:23;6.50;;;2.50;;
16189;SDS011;41754;51.498;7.540;2023-04-03T06:26:52;6.60;;;2.97;;
16189;SDS011;41754;51.498;7.540;2023-04-03T06:29:20;11.97;;;7.50;;
16189;SDS011;41754;51.498;7.540;2023-04-03T06:31:48;5.40;;;2.77;;
16189;SDS011;41754;51.498;7.540;2023-04-03T06:34:17;4.07;;;2.20;;
16189;SDS011;41754;51.498;7.540;2023-04-03T06:36:45;5.47;;;2.20;;
16189;SDS011;41754;51.498;7.540;2023-04-03T06:39:15;5.53;;;2.33;;
16189;SDS011;41754;51.498;7.540;2023-04-03T06:41:44;4.10;;;2.10;;
16189;SDS011;41754;51.498;7.540;2023-04-03T06:44:12;3.03;;;1.63;;
16189;SDS011;41754;51.498;7.540;2023-04-03T06:46:42;3.27;;;1.90;;
16189;SDS011;41754;51.498;7.540;2023-04-03T06:49:11;8.67;;;2.27;;
16189;SDS011;41754;51.498;7.540;2023-04-03T06:51:39;6.00;;;2.20;;
16189;SDS011;41754;51.498;7.540;2023-04-03T06:54:07;4.57;;;1.93;;
16189;SDS011;41754;51.498;7.540;2023-04-03T06:56:36;5.30;;;2.10;;
16189;SDS011;41754;51.498;7.540;2023-04-03T06:59:04;5.13;;;2.03;;
16189;SDS011;41754;51.498;7.540;2023-04-03T07:01:32;3.80;;;2.10;;
16189;SDS011;41754;51.498;7.540;2023-04-03T07:04:00;5.67;;;2.00;;
16189;SDS011;41754;51.498;7.540;2023-04-03T07:06:29;6.23;;;2.47;;
16189;SDS011;41754;51.498;7.540;2023-04-03T07:08:58;3.53;;;1.93;;
16189;SDS011;41754;51.498;7.540;2023-04-03T07:11:27;6.63;;;2.20;;
16189;SDS011;41754;51.498;7.540;2023-04-03T07:13:56;5.63;;;2.03;;
16189;SDS011;41754;51.498;7.540;2023-04-03T07:16:24;6.10;;;2.27;;
16189;SDS011;41754;51.498;7.540;2023-04-03T07:18:51;4.10;;;1.70;;
16189;SDS011;41754;51.498;7.540;2023-04-03T07:21:19;6.60;;;2.20;;
16189;SDS011;41754;51.498;7.540;2023-04-03T07:23:47;4.13;;;2.07;;
16189;SDS011;41754;51.498;7.540;2023-04-03T07:26:20;5.70;;;2.07;;
16189;SDS011;41754;51.498;7.540;2023-04-03T07:28:48;7.27;;;2.50;;
16189;SDS011;41754;51.498;7.540;2023-04-03T07:31:18;3.33;;;1.80;;
16189;SDS011;41754;51.498;7.540;2023-04-03T07:33:46;4.23;;;2.00;;
16189;SDS011;41754;51.498;7.540;2023-04-03T07:36:15;3.67;;;1.80;;
16189;SDS011;41754;51.498;7.540;2023-04-03T07:38:45;2.93;;;1.60;;
16189;SDS011;41754;51.498;7.540;2023-04-03T07:41:13;3.70;;;1.90;;
16189;SDS011;41754;51.498;7.540;2023-04-03T07:43:43;8.60;;;2.13;;
16189;SDS011;41754;51.498;7.540;2023-04-03T07:46:13;5.70;;;2.10;;
16189;SDS011;41754;51.498;7.540;2023-04-03T07:48:42;4.70;;;1.90;;
16189;SDS011;41754;51.498;7.540;2023-04-03T07:51:11;5.53;;;1.90;;
16189;SDS011;41754;51.498;7.540;2023-04-03T07:53:40;5.50;;;1.70;;
16189;SDS011;41754;51.498;7.540;2023-04-03T07:56:08;3.47;;;1.77;;
16189;SDS011;41754;51.498;7.540;2023-04-03T07:58:36;5.17;;;1.97;;
16189;SDS011;41754;51.498;7.540;2023-04-03T08:01:04;4.03;;;1.60;;
16189;SDS011;41754;51.498;7.540;2023-04-03T08:03:32;4.50;;;2.07;;
16189;SDS011;41754;51.498;7.540;2023-04-03T08:06:02;5.17;;;1.90;;
16189;SDS011;41754;51.498;7.540;2023-04-03T08:08:40;4.30;;;1.80;;
16189;SDS011;41754;51.498;7.540;2023-04-03T08:11:09;7.57;;;1.93;;
16189;SDS011;41754;51.498;7.540;2023-04-03T08:13:38;4.83;;;2.20;;
16189;SDS011;41754;51.498;7.540;2023-04-03T08:16:09;6.57;;;2.20;;
16189;SDS011;41754;51.498;7.540;2023-04-03T08:18:38;4.07;;;1.77;;
16189;SDS011;41754;51.498;7.540;2023-04-03T08:21:08;4.83;;;1.80;;
16189;SDS011;41754;51.498;7.540;2023-04-03T08:23:37;6.00;;;2.27;;
16189;SDS011;41754;51.498;7.540;2023-04-03T08:26:06;5.43;;;2.03;;
16189;SDS011;41754;51.498;7.540;2023-04-03T08:28:35;3.57;;;2.00;;
16189;SDS011;41754;51.498;7.540;2023-04-03T08:31:04;9.40;;;2.17;;
16189;SDS011;41754;51.498;7.540;2023-04-03T08:33:33;5.40;;;1.93;;
16189;SDS011;41754;51.498;7.540;2023-04-03T08:36:03;2.10;;;1.23;;
16189;SDS011;41754;51.498;7.540;2023-04-03T08:38:34;4.10;;;1.63;;
16189;SDS011;41754;51.498;7.540;2023-04-03T08:41:04;4.50;;;1.77;;
16189;SDS011;41754;51.498;7.540;2023-04-03T08:43:45;5.43;;;2.27;;
16189;SDS011;41754;51.498;7.540;2023-04-03T08:46:24;3.40;;;1.73;;
16189;SDS011;41754;51.498;7.540;2023-04-03T08:48:58;3.67;;;1.70;;
16189;SDS011;41754;51.498;7.540;2023-04-03T08:51:27;4.93;;;1.87;;
16189;SDS011;41754;51.498;7.540;2023-04-03T08:53:59;3.87;;;2.00;;
16189;SDS011;41754;51.498;7.540;2023-04-03T08:56:30;4.33;;;1.47;;
16189;SDS011;41754;51.498;7.540;2023-04-03T08:58:59;4.93;;;1.87;;
16189;SDS011;41754;51.498;7.540;2023-04-03T09:01:33;4.83;;;1.80;;
16189;SDS011;41754;51.498;7.540;2023-04-03T09:04:10;4.23;;;1.60;;
16189;SDS011;41754;51.498;7.540;2023-04-03T09:06:40;4.57;;;1.83;;
16189;SDS011;41754;51.498;7.540;2023-04-03T09:09:20;4.53;;;1.70;;
16189;SDS011;41754;51.498;7.540;2023-04-03T09:12:00;5.47;;;1.80;;
16189;SDS011;41754;51.498;7.540;2023-04-03T09:14:36;5.17;;;1.77;;
16189;SDS011;41754;51.498;7.540;2023-04-03T09:17:09;4.63;;;2.67;;
16189;SDS011;41754;51.498;7.540;2023-04-03T09:19:46;5.37;;;1.77;;
16189;SDS011;41754;51.498;7.540;2023-04-03T09:22:20;4.20;;;1.60;;
16189;SDS011;41754;51.498;7.540;2023-04-03T09:24:55;4.13;;;1.80;;
16189;SDS011;41754;51.498;7.540;2023-04-03T09:27:27;6.30;;;1.87;;
16189;SDS011;41754;51.498;7.540;2023-04-03T09:29:56;5.27;;;1.67;;
16189;SDS011;41754;51.498;7.540;2023-04-03T09:32:26;2.93;;;1.40;;
16189;SDS011;41754;51.498;7.540;2023-04-03T09:34:57;5.43;;;1.67;;
16189;SDS011;41754;51.498;7.540;2023-04-03T09:37:45;5.23;;;1.40;;
16189;SDS011;41754;51.498;7.540;2023-04-03T09:40:32;2.37;;;1.30;;
16189;SDS011;41754;51.498;7.540;2023-04-03T09:43:16;3.70;;;1.40;;
16189;SDS011;41754;51.498;7.540;2023-04-03T09:45:48;3.03;;;1.50;;
16189;SDS011;41754;51.498;7.540;2023-04-03T09:48:17;6.27;;;2.20;;
16189;SDS011;41754;51.498;7.540;2023-04-03T09:50:59;4.57;;;1.73;;
16189;SDS011;41754;51.498;7.540;2023-04-03T09:53:30;3.83;;;1.53;;
16189;SDS011;41754;51.498;7.540;2023-04-03T09:56:04;5.67;;;1.40;;
16189;SDS011;41754;51.498;7.540;2023-04-03T09:58:47;5.10;;;1.83;;
16189;SDS011;41754;51.498;7.540;2023-04-03T10:01:21;3.03;;;1.47;;
16189;SDS011;41754;51.498;7.540;2023-04-03T10:04:03;3.60;;;1.30;;
16189;SDS011;41754;51.498;7.540;2023-04-03T10:06:34;3.43;;;1.30;;
16189;SDS011;41754;51.498;7.540;2023-04-03T10:09:04;3.37;;;1.47;;
16189;SDS011;41754;51.498;7.540;2023-04-03T10:11:36;3.47;;;1.30;;
16189;SDS011;41754;51.498;7.540;2023-04-03T10:14:04;2.53;;;1.10;;
16189;SDS011;41754;51.498;7.540;2023-04-03T10:16:35;3.50;;;1.67;;
16189;SDS011;41754;51.498;7.540;2023-04-03T10:19:17;3.20;;;1.40;;
16189;SDS011;41754;51.498;7.540;2023-04-03T10:22:04;4.13;;;1.40;;
16189;SDS011;41754;51.498;7.540;2023-04-03T10:24:44;2.70;;;1.50;;
16189;SDS011;41754;51.498;7.540;2023-04-03T10:27:22;3.53;;;1.57;;
16189;SDS011;41754;51.498;7.540;2023-04-03T10:30:04;2.40;;;1.30;;
16189;SDS011;41754;51.498;7.540;2023-04-03T10:32:46;3.50;;;1.23;;
16189;SDS011;41754;51.498;7.540;2023-04-03T10:35:30;2.27;;;1.20;;
16189;SDS011;41754;51.498;7.540;2023-04-03T10:38:06;1.80;;;1.20;;
16189;SDS011;41754;51.498;7.540;2023-04-03T10:40:39;3.87;;;0.93;;
16189;SDS011;41754;51.498;7.540;2023-04-03T10:43:17;3.00;;;1.00;;
16189;SDS011;41754;51.498;7.540;2023-04-03T10:45:56;3.00;;;1.13;;
16189;SDS011;41754;51.498;7.540;2023-04-03T10:48:33;5.00;;;1.58;;
16189;SDS011;41754;51.498;7.540;2023-04-03T10:51:11;2.63;;;1.08;;
16189;SDS011;41754;51.498;7.540;2023-04-03T10:53:50;3.42;;;1.73;;
16189;SDS011;41754;51.498;7.540;2023-04-03T10:56:25;3.95;;;1.67;;
16189;SDS011;41754;51.498;7.540;2023-04-03T10:59:02;3.45;;;1.45;;
16189;SDS011;41754;51.498;7.540;2023-04-03T11:01:42;3.85;;;1.73;;
16189;SDS011;41754;51.498;7.540;2023-04-03T11:04:12;2.40;;;1.15;;
16189;SDS011;41754;51.498;7.540;2023-04-03T11:06:43;1.40;;;1.00;;
16189;SDS011;41754;51.498;7.540;2023-04-03T11:09:18;2.22;;;1.63;;
16189;SDS011;41754;51.498;7.540;2023-04-03T11:11:51;2.47;;;1.20;;
16189;SDS011;41754;51.498;7.540;2023-04-03T11:14:24;3.05;;;1.17;;
16189;SDS011;41754;51.498;7.540;2023-04-03T11:19:49;3.13;;;1.40;;
16189;SDS011;41754;51.498;7.540;2023-04-03T11:22:25;1.90;;;1.27;;
16189;SDS011;41754;51.498;7.540;2023-04-03T11:24:57;4.03;;;1.30;;
16189;SDS011;41754;51.498;7.540;2023-04-03T11:27:33;1.83;;;1.08;;
16189;SDS011;41754;51.498;7.540;2023-04-03T11:30:11;1.70;;;0.98;;
16189;SDS011;41754;51.498;7.540;2023-04-03T11:32:52;2.25;;;1.10;;
16189;SDS011;41754;51.498;7.540;2023-04-03T11:35:28;2.00;;;1.60;;
16189;SDS011;41754;51.498;7.540;2023-04-03T11:37:57;3.72;;;1.83;;
16189;SDS011;41754;51.498;7.540;2023-04-03T11:40:28;2.85;;;1.20;;
16189;SDS011;41754;51.498;7.540;2023-04-03T11:43:04;3.10;;;1.25;;
16189;SDS011;41754;51.498;7.540;2023-04-03T11:45:36;2.08;;;1.17;;
16189;SDS011;41754;51.498;7.540;2023-04-03T11:51:39;1.67;;;1.35;;
16189;SDS011;41754;51.498;7.540;2023-04-03T12:12:30;1.73;;;1.10;;
16189;SDS011;41754;51.498;7.540;2023-04-03T12:15:17;2.00;;;1.23;;
16189;SDS011;41754;51.498;7.540;2023-04-03T12:17:48;2.40;;;1.20;;
16189;SDS011;41754;51.498;7.540;2023-04-03T12:23:26;2.03;;;1.27;;
16189;SDS011;41754;51.498;7.540;2023-04-03T12:26:04;3.70;;;1.88;;
16189;SDS011;41754;51.498;7.540;2023-04-03T12:28:48;2.45;;;1.60;;
16189;SDS011;41754;51.498;7.540;2023-04-03T12:31:19;1.70;;;1.00;;
16189;SDS011;41754;51.498;7.540;2023-04-03T12:34:00;2.65;;;1.17;;
16189;SDS011;41754;51.498;7.540;2023-04-03T12:36:45;2.90;;;1.20;;
16189;SDS011;41754;51.498;7.540;2023-04-03T12:39:33;1.48;;;1.30;;
16189;SDS011;41754;51.498;7.540;2023-04-03T12:42:22;1.58;;;1.15;;
16189;SDS011;41754;51.498;7.540;2023-04-03T12:45:00;2.67;;;1.33;;
16189;SDS011;41754;51.498;7.540;2023-04-03T12:47:36;1.75;;;1.10;;
16189;SDS011;41754;51.498;7.540;2023-04-03T12:50:16;2.20;;;1.10;;
16189;SDS011;41754;51.498;7.540;2023-04-03T12:52:48;1.50;;;1.10;;
16189;SDS011;41754;51.498;7.540;2023-04-03T12:55:20;1.48;;;1.20;;
16189;SDS011;41754;51.498;7.540;2023-04-03T12:57:49;2.28;;;1.20;;
16189;SDS011;41754;51.498;7.540;2023-04-03T13:03:06;2.10;;;1.25;;
16189;SDS011;41754;51.498;7.540;2023-04-03T13:05:48;2.45;;;1.10;;
16189;SDS011;41754;51.498;7.540;2023-04-03T13:08:17;2.80;;;1.20;;
16189;SDS011;41754;51.498;7.540;2023-04-03T13:10:49;2.30;;;1.27;;
16189;SDS011;41754;51.498;7.540;2023-04-03T13:13:22;1.92;;;1.30;;
16189;SDS011;41754;51.498;7.540;2023-04-03T13:15:50;1.95;;;1.60;;
16189;SDS011;41754;51.498;7.540;2023-04-03T13:18:26;2.65;;;1.17;;
16189;SDS011;41754;51.498;7.540;2023-04-03T13:20:58;3.17;;;1.00;;
16189;SDS011;41754;51.498;7.540;2023-04-03T13:23:30;1.73;;;1.17;;
16189;SDS011;41754;51.498;7.540;2023-04-03T13:26:02;2.42;;;1.10;;
16189;SDS011;41754;51.498;7.540;2023-04-03T13:28:31;1.30;;;1.20;;
16189;SDS011;41754;51.498;7.540;2023-04-03T13:31:02;1.75;;;1.10;;
16189;SDS011;41754;51.498;7.540;2023-04-03T13:33:36;2.28;;;1.30;;
16189;SDS011;41754;51.498;7.540;2023-04-03T13:36:07;2.63;;;1.30;;
16189;SDS011;41754;51.498;7.540;2023-04-03T13:38:43;1.65;;;1.25;;
16189;SDS011;41754;51.498;7.540;2023-04-03T13:41:24;2.35;;;1.30;;
16189;SDS011;41754;51.498;7.540;2023-04-03T13:43:53;1.95;;;1.33;;
16189;SDS011;41754;51.498;7.540;2023-04-03T13:46:35;2.38;;;1.45;;
16189;SDS011;41754;51.498;7.540;2023-04-03T13:49:09;3.25;;;1.10;;
16189;SDS011;41754;51.498;7.540;2023-04-03T13:51:47;2.40;;;1.10;;
16189;SDS011;41754;51.498;7.540;2023-04-03T13:54:30;2.40;;;1.30;;
16189;SDS011;41754;51.498;7.540;2023-04-03T13:57:01;1.75;;;1.00;;
16189;SDS011;41754;51.498;7.540;2023-04-03T13:59:30;2.35;;;1.33;;
16189;SDS011;41754;51.498;7.540;2023-04-03T14:02:11;2.33;;;1.30;;
16189;SDS011;41754;51.498;7.540;2023-04-03T14:04:47;1.85;;;1.45;;
16189;SDS011;41754;51.498;7.540;2023-04-03T14:07:20;1.58;;;1.00;;
16189;SDS011;41754;51.498;7.540;2023-04-03T14:09:48;2.97;;;1.50;;
16189;SDS011;41754;51.498;7.540;2023-04-03T14:12:18;3.17;;;1.30;;
16189;SDS011;41754;51.498;7.540;2023-04-03T14:14:56;1.80;;;1.15;;
16189;SDS011;41754;51.498;7.540;2023-04-03T14:17:25;2.33;;;1.60;;
16189;SDS011;41754;51.498;7.540;2023-04-03T14:19:55;2.20;;;1.30;;
16189;SDS011;41754;51.498;7.540;2023-04-03T14:22:26;2.40;;;1.55;;
16189;SDS011;41754;51.498;7.540;2023-04-03T14:24:55;2.72;;;1.63;;
16189;SDS011;41754;51.498;7.540;2023-04-03T14:27:24;4.15;;;1.38;;
16189;SDS011;41754;51.498;7.540;2023-04-03T14:29:55;3.17;;;1.50;;
16189;SDS011;41754;51.498;7.540;2023-04-03T14:32:24;2.13;;;1.48;;
16189;SDS011;41754;51.498;7.540;2023-04-03T14:34:53;1.80;;;1.27;;
16189;SDS011;41754;51.498;7.540;2023-04-03T14:37:22;3.28;;;3.00;;
16189;SDS011;41754;51.498;7.540;2023-04-03T14:39:53;2.22;;;1.50;;
16189;SDS011;41754;51.498;7.540;2023-04-03T14:42:23;3.25;;;1.40;;
16189;SDS011;41754;51.498;7.540;2023-04-03T14:44:54;2.28;;;1.50;;
16189;SDS011;41754;51.498;7.540;2023-04-03T14:47:22;2.97;;;1.98;;
16189;SDS011;41754;51.498;7.540;2023-04-03T14:49:58;2.03;;;1.60;;
16189;SDS011;41754;51.498;7.540;2023-04-03T14:52:28;2.25;;;1.45;;
16189;SDS011;41754;51.498;7.540;2023-04-03T14:54:58;2.85;;;1.70;;
16189;SDS011;41754;51.498;7.540;2023-04-03T14:57:27;2.15;;;1.45;;
16189;SDS011;41754;51.498;7.540;2023-04-03T14:59:57;3.25;;;1.60;;
16189;SDS011;41754;51.498;7.540;2023-04-03T15:02:29;2.20;;;1.35;;
16189;SDS011;41754;51.498;7.540;2023-04-03T15:05:00;2.75;;;1.50;;
16189;SDS011;41754;51.498;7.540;2023-04-03T15:07:31;2.30;;;1.70;;
16189;SDS011;41754;51.498;7.540;2023-04-03T15:10:06;1.95;;;1.30;;
16189;SDS011;41754;51.498;7.540;2023-04-03T15:12:43;2.53;;;1.30;;
16189;SDS011;41754;51.498;7.540;2023-04-03T15:15:12;9.32;;;5.07;;
16189;SDS011;41754;51.498;7.540;2023-04-03T15:17:40;2.67;;;1.60;;
16189;SDS011;41754;51.498;7.540;2023-04-03T15:20:12;3.80;;;1.70;;
16189;SDS011;41754;51.498;7.540;2023-04-03T15:22:42;3.05;;;1.42;;
16189;SDS011;41754;51.498;7.540;2023-04-03T15:25:11;3.65;;;1.58;;
16189;SDS011;41754;51.498;7.540;2023-04-03T15:27:40;1.75;;;1.10;;
16189;SDS011;41754;51.498;7.540;2023-04-03T15:30:11;1.35;;;1.13;;
16189;SDS011;41754;51.498;7.540;2023-04-03T15:32:41;2.63;;;1.35;;
16189;SDS011;41754;51.498;7.540;2023-04-03T15:35:09;1.92;;;1.08;;
16189;SDS011;41754;51.498;7.540;2023-04-03T15:37:37;3.03;;;1.35;;
16189;SDS011;41754;51.498;7.540;2023-04-03T15:40:05;1.77;;;1.30;;
16189;SDS011;41754;51.498;7.540;2023-04-03T15:42:35;2.67;;;1.13;;
16189;SDS011;41754;51.498;7.540;2023-04-03T15:45:04;2.53;;;1.30;;